Data for 06/30/2014

Time Sea-Level Adjusted Pressure Absolute Pressure Temperature Relative Humidity Dew Point   
(mb) (inHg) (mb) (inHg) (C) (F) (%) (C) (F)
00:05 1021 30.15 850 25.1 12 53.6 47 1.2 34.1
00:10 1021 30.15 850 25.1 12.1 53.8 47 1.3 34.4
00:15 1021 30.15 850 25.1 12 53.7 48 1.5 34.6
00:20 1021 30.15 850 25.1 11.9 53.5 48 1.3 34.4
00:25 1021 30.15 850 25.1 11.8 53.3 49 1.4 34.5
00:30 1021 30.15 850 25.1 11.7 53 49 1.4 34.4
00:35 1021 30.15 850 25.1 11.6 52.8 50 1.4 34.6
00:40 1021 30.15 850 25.1 11.4 52.5 51 1.7 35.1
00:45 1021 30.15 850 25.1 11.2 52.1 52 1.9 35.3
00:50 1021 30.15 850 25.1 11 51.7 54 2 35.5
00:55 1021 30.15 850 25.1 10.7 51.3 54 2 35.5
01:00 1021 30.15 850 25.1 10.5 51 59 3 37.5
01:05 1021 30.15 850 25.1 9.7 49.5 62 2.8 37
01:10 1021 30.15 850 25.1 9.4 48.8 63 2.7 36.8
01:15 1021 30.15 851 25.13 9.2 48.5 62 2.4 36.3
01:20 1021 30.15 851 25.13 9.1 48.4 61 1.9 35.4
01:25 1021 30.15 851 25.13 9 48.1 63 2.2 36
01:30 1021 30.15 851 25.13 8.5 47.2 65 2.3 36.2
01:35 1021 30.15 851 25.13 8.2 46.7 65 2.1 35.8
01:40 1021 30.15 851 25.13 8.2 46.8 63 1.6 34.9
01:45 1021 30.15 851 25.13 8.5 47.3 61 1.4 34.5
01:50 1021 30.15 851 25.13 8.8 47.8 59 1.3 34.3
01:55 1021 30.15 851 25.13 9.1 48.4 58 1.2 34.2
02:00 1021 30.15 851 25.13 9.1 48.4 58 1.3 34.4
02:05 1021 30.15 851 25.13 9 48.2 59 1.6 34.8
02:10 1021 30.15 851 25.13 8.7 47.6 62 1.7 35.1
02:15 1021 30.15 851 25.13 8.3 46.9 62 1.5 34.7
02:20 1021 30.15 851 25.13 8.3 46.9 61 1.3 34.4
02:25 1022 30.18 851 25.13 8.4 47 61 1.4 34.5
02:30 1022 30.18 851 25.13 8.3 46.9 63 1.6 34.9
02:35 1022 30.18 851 25.13 7.9 46.2 64 1.5 34.6
02:40 1022 30.18 851 25.13 7.8 46.1 63 1.2 34.1
02:45 1022 30.18 851 25.13 7.9 46.3 62 1.1 34
02:50 1022 30.18 851 25.13 8 46.4 62 1.1 34
02:55 1022 30.18 851 25.13 8 46.3 64 1.5 34.7
03:00 1022 30.18 851 25.13 7.8 46 63 1.3 34.3
03:05 1022 30.18 851 25.13 7.7 45.9 65 1.5 34.8
03:10 1022 30.18 851 25.13 7.8 46.1 64 1.4 34.5
03:15 1022 30.18 851 25.13 8.1 46.6 60 0.9 33.7
03:20 1022 30.18 851 25.13 8.3 46.9 60 1.1 33.9
03:25 1022 30.18 851 25.13 8.2 46.8 61 1.2 34.1
03:30 1022 30.18 851 25.13 8 46.5 62 1.2 34.2
03:35 1022 30.18 851 25.13 8.1 46.5 59 0.5 32.8
03:40 1022 30.18 851 25.13 8.5 47.2 57 0.5 32.9
03:45 1022 30.18 851 25.13 8.7 47.6 56 0.5 32.9
03:50 1022 30.18 851 25.13 8.6 47.5 57 0.7 33.2
03:55 1022 30.18 851 25.13 8.5 47.3 59 0.9 33.6
04:00 1022 30.18 851 25.13 8.3 47 59 0.7 33.3
04:05 1022 30.18 851 25.13 8.5 47.2 57 0.6 33
04:10 1022 30.18 851 25.13 8.6 47.5 56 0.4 32.8
04:15 1022 30.18 851 25.13 8.7 47.7 56 0.3 32.6
04:20 1022 30.18 851 25.13 8.8 47.8 55 0.3 32.5
04:25 1022 30.18 851 25.13 8.9 47.9 54 0.1 32.1
04:30 1022 30.18 851 25.13 8.9 48.1 53 -0 32
04:35 1022 30.18 851 25.13 9 48.1 53 0 32
04:40 1022 30.18 851 25.13 8.9 48.1 53 -0.1 31.8
04:45 1022 30.18 852 25.16 9 48.2 53 -0.1 31.8
04:50 1022 30.18 852 25.16 9 48.2 53 0 32.1
04:55 1023 30.21 852 25.16 9 48.2 54 0.1 32.1
05:00 1023 30.21 852 25.16 9 48.2 54 0.1 32.2
05:05 1023 30.21 852 25.16 9.2 48.5 52 -0 31.9
05:10 1023 30.21 852 25.16 9.2 48.5 52 -0 32
05:15 1023 30.21 852 25.16 9.3 48.7 53 0.1 32.2
05:20 1023 30.21 852 25.16 9.3 48.7 53 0.2 32.4
05:25 1023 30.21 852 25.16 9.2 48.5 54 0.3 32.6
05:30 1023 30.21 852 25.16 9.1 48.4 54 0.2 32.4
05:35 1023 30.21 852 25.16 9.3 48.8 53 0.1 32.3
05:40 1023 30.21 852 25.16 9.6 49.3 52 0.3 32.5
05:45 1023 30.21 852 25.16 9.8 49.6 51 0.2 32.3
05:50 1023 30.21 852 25.16 9.8 49.6 51 0.1 32.1
05:55 1023 30.21 852 25.16 9.7 49.5 51 0 32
06:00 1023 30.21 852 25.16 9.7 49.4 50 -0.1 31.9
06:05 1023 30.21 852 25.16 9.8 49.6 50 -0 32
06:10 1023 30.21 852 25.16 9.8 49.7 50 -0 32
06:15 1023 30.21 852 25.16 9.8 49.6 51 0.2 32.4
06:20 1023 30.21 852 25.16 9.8 49.7 51 0.3 32.5
06:25 1023 30.21 852 25.16 9.9 49.9 51 0.2 32.4
06:30 1023 30.21 852 25.16 9.9 49.8 52 0.5 32.9
06:35 1023 30.21 852 25.16 10.5 50.8 49 0.2 32.4
06:40 1023 30.21 852 25.16 11.1 51.9 48 0.5 32.9
06:45 1023 30.21 852 25.16 11 51.8 49 0.7 33.3
06:50 1023 30.21 852 25.16 10.8 51.5 49 0.6 33
06:55 1023 30.21 852 25.16 10.7 51.2 50 0.7 33.3
07:00 1023 30.21 853 25.19 10.7 51.3 50 0.7 33.2
07:05 1023 30.21 853 25.19 10.9 51.6 50 0.8 33.4
07:10 1023 30.21 853 25.19 11 51.8 50 1 33.9
07:15 1023 30.21 853 25.19 11.1 51.9 51 1.2 34.2
07:20 1023 30.21 853 25.19 11.4 52.4 49 1.2 34.1
07:25 1024 30.24 853 25.19 11.6 52.8 49 1.2 34.1
07:30 1023 30.21 853 25.19 11.6 53 48 1.1 34
07:35 1023 30.21 853 25.19 11.8 53.2 49 1.3 34.4
07:40 1024 30.24 853 25.19 11.8 53.3 47 1.1 33.9
07:45 1024 30.24 853 25.19 12.1 53.8 47 1.3 34.4
07:50 1024 30.24 853 25.19 12.3 54.2 46 1 33.8
07:55 1024 30.24 853 25.19 12.3 54.1 47 1.2 34.2
08:00 1024 30.24 853 25.19 12.6 54.7 45 1 33.8
08:05 1024 30.24 853 25.19 13.3 55.9 43 1.1 34
08:10 1024 30.24 853 25.19 13.6 56.5 41 0.8 33.4
08:15 1024 30.24 853 25.19 13.9 57 39 0.1 32.1
08:20 1024 30.24 853 25.19 14.1 57.3 39 0.4 32.7
08:25 1024 30.24 853 25.19 14.1 57.5 39 0.6 33
08:30 1024 30.24 853 25.19 14.6 58.2 38 0.5 32.8
08:35 1024 30.24 853 25.19 15.2 59.3 35 0 32.1
08:40 1024 30.24 853 25.19 15.2 59.3 35 0.1 32.1
08:45 1024 30.24 853 25.19 15.1 59.3 36 0.4 32.8
08:50 1024 30.24 853 25.19 15.4 59.6 36 0.6 33.1
08:55 1024 30.24 853 25.19 15.3 59.6 36 0.5 32.9
09:00 1024 30.24 853 25.19 15.3 59.5 34 -0.6 31
09:05 1024 30.24 853 25.19 15.9 60.6 33 -0.2 31.7
09:10 1024 30.24 853 25.19 15.1 59.2 34 -0.6 31
09:15 1024 30.24 853 25.19 15.2 59.3 34 -0.4 31.3
09:20 1024 30.24 853 25.19 15.3 59.5 35 0.2 32.4
09:25 1024 30.24 853 25.19 15.6 60 34 -0.2 31.7
09:30 1024 30.24 853 25.19 16.4 61.5 32 -0.3 31.5
09:35 1024 30.24 853 25.19 15.7 60.2 34 -0.1 31.9
09:40 1024 30.24 853 25.19 15.3 59.5 35 -0.1 31.8
09:45 1024 30.24 853 25.19 16.2 61.1 32 -0.4 31.2
09:50 1024 30.24 853 25.19 16.6 61.8 32 -0.2 31.6
09:55 1024 30.24 853 25.19 16.3 61.3 34 0.3 32.6
10:00 1024 30.24 853 25.19 15.8 60.4 34 0 32
10:05 1024 30.24 853 25.19 16.1 60.9 32 -0.5 31.1
10:10 1024 30.24 853 25.19 16.4 61.4 32 -0.2 31.6
10:15 1024 30.24 853 25.19 16.5 61.7 32 -0.2 31.7
10:20 1024 30.24 853 25.19 16.9 62.3 32 -0 31.9
10:25 1024 30.24 853 25.19 17.5 63.5 30 -0.3 31.4
10:30 1024 30.24 853 25.19 17.6 63.7 30 0.1 32.2
10:35 1024 30.24 853 25.19 17.4 63.4 30 -0.3 31.4
10:40 1024 30.24 853 25.19 17.3 63.2 32 0.5 32.9
10:45 1024 30.24 853 25.19 17.5 63.6 31 0.3 32.6
10:50 1024 30.24 853 25.19 17.4 63.3 32 0.5 32.8
10:55 1024 30.24 853 25.19 17 62.6 32 0.5 32.9
11:00 1024 30.24 853 25.19 17.2 63 31 0.2 32.3
11:05 1024 30.24 853 25.19 17.3 63.1 32 0.4 32.6
11:10 1024 30.24 853 25.19 17 62.5 32 0.2 32.4
11:15 1024 30.24 853 25.19 16.6 61.9 33 0.2 32.4
11:20 1024 30.24 853 25.19 16.9 62.4 33 0.8 33.4
11:25 1024 30.24 853 25.19 18.2 64.7 29 -0 32
11:30 1024 30.24 853 25.19 19 66.1 29 0.5 32.9
11:35 1024 30.24 853 25.19 18.7 65.6 29 0.3 32.5
11:40 1024 30.24 853 25.19 18 64.5 31 0.7 33.3
11:45 1024 30.24 853 25.19 17.6 63.6 31 0.4 32.8
11:50 1024 30.24 853 25.19 17.7 63.8 30 -0.2 31.6
11:55 1024 30.24 853 25.19 17.8 64.1 30 0.2 32.3
12:00 1024 30.24 853 25.19 17.7 63.9 29 -0.2 31.6
12:05 1024 30.24 853 25.19 17.9 64.2 30 0.2 32.3
12:10 1024 30.24 853 25.19 17.8 64 30 -0.1 31.9
12:15 1024 30.24 853 25.19 17.8 64 29 -0.5 31.1
12:20 1024 30.24 853 25.19 18.1 64.5 30 0.5 32.9
12:25 1024 30.24 853 25.19 18.8 65.9 28 -0.1 31.9
12:30 1024 30.24 853 25.19 18.6 65.5 29 0.5 32.9
12:35 1024 30.24 853 25.19 18.8 65.8 29 0.4 32.7
12:40 1024 30.24 853 25.19 18.5 65.3 29 0.1 32.3
12:45 1024 30.24 853 25.19 18.4 65 28 -0.3 31.4
12:50 1024 30.24 853 25.19 18.2 64.7 29 0.2 32.3
12:55 1024 30.24 853 25.19 18.1 64.5 29 0.1 32.1
13:00 1024 30.24 853 25.19 18 64.3 32 1.1 33.9
13:05 1024 30.24 853 25.19 17.9 64.2 30 0.1 32.2
13:10 1024 30.24 853 25.19 18.5 65.3 29 0.1 32.1
13:15 1024 30.24 853 25.19 18.7 65.6 28 0.1 32.2
13:20 1024 30.24 853 25.19 18.7 65.7 28 0.1 32.2
13:25 1024 30.24 853 25.19 18.9 66 27 -0.1 31.8
13:30 1024 30.24 853 25.19 19.2 66.5 29 0.8 33.4
13:35 1024 30.24 853 25.19 18 64.5 32 1.3 34.3
13:40 1024 30.24 853 25.19 18.3 65 29 0.1 32.2
13:45 1024 30.24 853 25.19 18.9 66 28 -0 31.9
13:50 1024 30.24 853 25.19 19.3 66.7 27 -0.3 31.5
13:55 1024 30.24 853 25.19 19.6 67.3 27 0.1 32.2
14:00 1024 30.24 853 25.19 18.9 66 29 0.5 32.9
14:05 1024 30.24 853 25.19 19.1 66.4 28 0.5 32.9
14:10 1024 30.24 853 25.19 19.6 67.3 28 0.6 33
14:15 1024 30.24 853 25.19 20.1 68.1 25 -0.4 31.3
14:20 1024 30.24 853 25.19 20.3 68.5 27 0.8 33.5
14:25 1024 30.24 853 25.19 19.3 66.8 27 0.1 32.2
14:30 1024 30.24 853 25.19 19.2 66.6 27 0.2 32.3
14:35 1024 30.24 853 25.19 19.6 67.3 27 0.5 32.9
14:40 1024 30.24 853 25.19 20.4 68.8 26 0.7 33.3
14:45 1024 30.24 853 25.19 21.8 71.3 24 0.6 33.1
14:50 1024 30.24 853 25.19 21.8 71.3 24 0.6 33.1
14:55 1024 30.24 853 25.19 20.9 69.5 26 0.7 33.3
15:00 1024 30.24 853 25.19 20.5 68.9 26 0.6 33.2
15:05 1024 30.24 853 25.19 20.9 69.6 25 0.4 32.8
15:10 1024 30.24 853 25.19 20.6 69.1 25 0.1 32.1
15:15 1024 30.24 853 25.19 20.8 69.4 27 1.1 34.1
15:20 1024 30.24 853 25.19 20.9 69.7 24 0 32.1
15:25 1024 30.24 853 25.19 20.9 69.5 25 0.5 32.9
15:30 1024 30.24 853 25.19 21.4 70.5 25 0.7 33.2
15:35 1024 30.24 853 25.19 21.2 70.2 25 0.5 32.8
15:40 1024 30.24 853 25.19 21.1 70.1 25 0.3 32.6
15:45 1024 30.24 853 25.19 21.5 70.7 25 0.8 33.5
15:50 1024 30.24 853 25.19 21.3 70.3 25 0.4 32.6
15:55 1024 30.24 853 25.19 21.3 70.3 24 0.2 32.4
16:00 1024 30.24 853 25.19 21.3 70.3 24 0.1 32.2
16:05 1024 30.24 853 25.19 21.3 70.4 24 0.2 32.3
16:10 1024 30.24 853 25.19 21.3 70.4 24 0.2 32.4
16:15 1024 30.24 853 25.19 21.9 71.3 25 1.2 34.2
16:20 1024 30.24 853 25.19 22.1 71.8 25 1.1 34
16:25 1024 30.24 853 25.19 21.8 71.2 24 0.5 32.8
16:30 1024 30.24 853 25.19 21 69.9 26 0.8 33.5
16:35 1024 30.24 853 25.19 20.3 68.5 26 0.6 33
16:40 1024 30.24 853 25.19 20.8 69.5 25 0 32
16:45 1024 30.24 853 25.19 20.7 69.2 26 0.8 33.4
16:50 1024 30.24 853 25.19 20.6 69.1 27 0.9 33.6
16:55 1024 30.24 853 25.19 21 69.8 25 0.4 32.8
17:00 1024 30.24 853 25.19 21 69.7 26 0.8 33.4
17:05 1024 30.24 853 25.19 19.9 67.9 28 0.9 33.6
17:10 1024 30.24 853 25.19 20.3 68.6 25 -0.4 31.3
17:15 1024 30.24 853 25.19 21 69.7 26 0.7 33.2
17:20 1024 30.24 853 25.19 20.8 69.5 27 1.4 34.6
17:25 1024 30.24 853 25.19 21.2 70.1 25 0.5 32.8
17:30 1024 30.24 853 25.19 20.7 69.2 26 0.8 33.5
17:35 1024 30.24 853 25.19 20.7 69.3 26 1 33.8
17:40 1024 30.24 853 25.19 20.6 69.1 25 0.2 32.3
17:45 1024 30.24 853 25.19 21 69.7 25 0.6 33.1
17:50 1024 30.24 853 25.19 20.8 69.5 26 0.5 33
17:55 1024 30.24 853 25.19 20.8 69.4 26 0.8 33.5
18:00 1024 30.24 853 25.19 20.8 69.4 26 0.9 33.6
18:05 1024 30.24 853 25.19 20.6 69.1 27 0.9 33.7
18:10 1024 30.24 853 25.19 20.6 69.1 26 0.5 32.9
18:15 1024 30.24 853 25.19 20.5 68.9 27 1.2 34.2
18:20 1024 30.24 853 25.19 20.5 68.8 26 0.7 33.2
18:25 1024 30.24 853 25.19 20.5 68.8 27 1.2 34.2
18:30 1024 30.24 853 25.19 20.4 68.7 27 1.1 34
18:35 1024 30.24 853 25.19 19.5 67.1 29 0.9 33.7
18:40 1024 30.24 853 25.19 18.9 66 30 1.1 34.1
18:45 1024 30.24 853 25.19 18.9 66 31 1.5 34.7
18:50 1024 30.24 853 25.19 18.9 66 30 1 33.7
18:55 1024 30.24 853 25.19 18.9 66 30 1.2 34.2
19:00 1024 30.24 853 25.19 19 66.2 29 0.8 33.5
19:05 1024 30.24 853 25.19 19.1 66.3 30 1 33.9
19:10 1024 30.24 853 25.19 18.8 65.8 30 1 33.8
19:15 1024 30.24 853 25.19 18.8 65.8 30 0.9 33.6
19:20 1024 30.24 853 25.19 18.4 65.1 31 1 33.7
19:25 1024 30.24 853 25.19 18.3 64.9 31 1.1 34
19:30 1024 30.24 853 25.19 18.2 64.8 32 1.4 34.5
19:35 1024 30.24 853 25.19 18.2 64.7 31 1.1 34
19:40 1024 30.24 853 25.19 18.1 64.5 32 1.2 34.2
19:45 1024 30.24 853 25.19 18 64.4 33 1.7 35
19:50 1024 30.24 853 25.19 17.8 64 33 1.5 34.8
19:55 1024 30.24 853 25.19 17.7 63.8 33 1.2 34.2
20:00 1024 30.24 853 25.19 17.6 63.7 33 1.3 34.4
20:05 1024 30.24 853 25.19 17.6 63.6 32 1 33.8
20:10 1024 30.24 853 25.19 17.6 63.7 33 1.4 34.4
20:15 1024 30.24 853 25.19 17.4 63.4 34 1.4 34.6
20:20 1024 30.24 853 25.19 17.4 63.2 33 1.2 34.2
20:25 1024 30.24 853 25.19 17.3 63.1 33 1.2 34.1
20:30 1024 30.24 853 25.19 17.3 63.2 37 2.6 36.6
20:35 1024 30.24 853 25.19 16.9 62.4 44 4.6 40.3
20:40 1024 30.24 853 25.19 16.1 61 50 5.8 42.5
20:45 1024 30.24 854 25.22 15.1 59.2 52 5.4 41.7
20:50 1024 30.24 854 25.22 14.6 58.2 52 5 41
20:55 1024 30.24 854 25.22 14.3 57.7 53 4.9 40.7
21:00 1024 30.24 854 25.22 14 57.2 53 4.7 40.5
21:05 1025 30.27 854 25.22 13.6 56.5 56 5.2 41.3
21:10 1025 30.27 854 25.22 13.1 55.6 59 5.4 41.7
21:15 1025 30.27 854 25.22 12.8 55 56 4.4 39.9
21:20 1025 30.27 854 25.22 12.9 55.2 56 4.5 40.1
21:25 1025 30.27 854 25.22 12.9 55.2 56 4.5 40.1
21:30 1025 30.27 854 25.22 12.8 55 57 4.5 40.1
21:35 1025 30.27 854 25.22 12.4 54.4 59 4.6 40.3
21:40 1025 30.27 854 25.22 12 53.7 59 4.4 40
21:45 1025 30.27 854 25.22 11.9 53.4 60 4.3 39.8
21:50 1025 30.27 854 25.22 11.8 53.3 60 4.3 39.7
21:55 1025 30.27 854 25.22 11.8 53.2 60 4.2 39.6
22:00 1025 30.27 854 25.22 11.9 53.4 59 4.2 39.5
22:05 1025 30.27 854 25.22 11.8 53.2 60 4.2 39.6
22:10 1025 30.27 854 25.22 11.5 52.7 60 4.1 39.3
22:15 1025 30.27 854 25.22 11.4 52.5 60 3.9 39
22:20 1025 30.27 854 25.22 11.3 52.4 60 3.8 38.8
22:25 1025 30.27 854 25.22 11.2 52.2 60 3.7 38.7
22:30 1025 30.27 854 25.22 11.2 52.1 60 3.8 38.9
22:35 1025 30.27 854 25.22 11.1 52 59 3.5 38.4
22:40 1025 30.27 854 25.22 11.2 52.1 59 3.6 38.4
22:45 1025 30.27 854 25.22 11.1 51.9 59 3.4 38.2
22:50 1025 30.27 854 25.22 11 51.8 59 3.5 38.2
22:55 1025 30.27 854 25.22 11 51.7 58 3 37.4
23:00 1025 30.27 854 25.22 11.3 52.4 57 3 37.5
23:05 1025 30.27 854 25.22 11.5 52.7 56 3.2 37.7
23:10 1025 30.27 854 25.22 11.4 52.6 57 3.2 37.7
23:15 1025 30.27 854 25.22 11.3 52.3 58 3.3 37.9
23:20 1025 30.27 854 25.22 11.1 52 59 3.5 38.3
23:25 1025 30.27 854 25.22 10.8 51.5 60 3.5 38.2
23:30 1025 30.27 854 25.22 10.6 51 61 3.3 38
23:35 1025 30.27 854 25.22 10.7 51.3 59 3.2 37.7
23:40 1025 30.27 854 25.22 10.8 51.4 59 3.2 37.7
23:45 1025 30.27 854 25.22 10.7 51.3 59 3.1 37.6
23:50 1025 30.27 854 25.22 10.7 51.2 59 3.1 37.5
23:55 1025 30.27 854 25.22 10.6 51 60 3.2 37.7
24:00 1025 30.27 854 25.22 10.5 50.9 60 3.1 37.6